createdAt,value
2019-03-02T00:01:54.936Z,5.50
2019-03-02T00:04:35.516Z,5.50
2019-03-02T00:07:16.162Z,5.50
2019-03-02T00:09:56.901Z,5.50
2019-03-02T00:12:37.921Z,5.50
2019-03-02T00:15:18.590Z,5.40
2019-03-02T00:18:00.014Z,5.40
2019-03-02T00:20:40.930Z,5.40
2019-03-02T00:23:21.310Z,5.40
2019-03-02T00:26:01.949Z,5.40
2019-03-02T00:28:43.136Z,5.40
2019-03-02T00:31:24.196Z,5.40
2019-03-02T00:34:04.994Z,5.40
2019-03-02T00:36:45.700Z,5.40
2019-03-02T00:39:26.537Z,5.40
2019-03-02T00:42:07.412Z,5.50
2019-03-02T00:44:48.117Z,5.50
2019-03-02T00:47:31.743Z,5.50
2019-03-02T00:50:11.948Z,5.50
2019-03-02T00:52:55.685Z,5.50
2019-03-02T00:55:35.657Z,5.40
2019-03-02T00:58:16.358Z,5.40
2019-03-02T01:00:57.079Z,5.40
2019-03-02T01:03:38.328Z,5.40
2019-03-02T01:06:19.209Z,5.40
2019-03-02T01:09:00.012Z,5.40
2019-03-02T01:11:40.977Z,5.40
2019-03-02T01:14:21.796Z,5.40
2019-03-02T01:17:02.539Z,5.40
2019-03-02T01:19:43.316Z,5.40
2019-03-02T01:22:24.207Z,5.40
2019-03-02T01:25:05.080Z,5.50
2019-03-02T01:27:46.082Z,5.40
2019-03-02T01:30:30.052Z,5.40
2019-03-02T01:33:09.626Z,5.50
2019-03-02T01:35:50.348Z,5.50
2019-03-02T01:38:31.105Z,5.50
2019-03-02T01:41:13.996Z,5.50
2019-03-02T01:43:54.593Z,5.50
2019-03-02T01:46:37.546Z,5.50
2019-03-02T01:49:18.168Z,5.50
2019-03-02T01:51:59.415Z,5.60
2019-03-02T01:54:40.462Z,5.50
2019-03-02T01:57:21.204Z,5.50
2019-03-02T02:00:02.300Z,5.50
2019-03-02T02:02:43.008Z,5.50
2019-03-02T02:05:24.074Z,5.50
2019-03-02T02:08:04.890Z,5.50
2019-03-02T02:10:45.748Z,5.50
2019-03-02T02:13:26.530Z,5.50
2019-03-02T02:16:07.464Z,5.50
2019-03-02T02:18:48.140Z,5.50
2019-03-02T02:21:28.912Z,5.50
2019-03-02T02:24:09.770Z,5.50
2019-03-02T02:26:50.600Z,5.50
2019-03-02T02:29:31.441Z,5.50
2019-03-02T02:32:12.291Z,5.50
2019-03-02T02:34:56.338Z,5.40
2019-03-02T02:37:37.051Z,5.40
2019-03-02T02:40:18.690Z,5.40
2019-03-02T02:42:59.519Z,5.40
2019-03-02T02:45:40.274Z,5.40
2019-03-02T02:48:20.956Z,5.30
2019-03-02T02:51:04.293Z,5.30
2019-03-02T02:53:46.854Z,5.30
2019-03-02T02:56:27.503Z,5.30
2019-03-02T02:59:08.229Z,5.20
2019-03-02T03:01:49.111Z,5.20
2019-03-02T03:04:32.583Z,5.30
2019-03-02T03:07:14.273Z,5.30
2019-03-02T03:13:02.230Z,5.30
2019-03-02T03:18:47.043Z,5.30
2019-03-02T03:21:27.727Z,5.30
2019-03-02T03:24:09.629Z,5.20
2019-03-02T03:26:50.550Z,5.20
2019-03-02T03:29:31.499Z,5.20
2019-03-02T03:32:12.689Z,5.20
2019-03-02T03:34:53.656Z,5.30
2019-03-02T03:37:34.234Z,5.20
2019-03-02T03:40:15.173Z,5.20
2019-03-02T03:43:02.367Z,5.20
2019-03-02T03:45:42.286Z,5.30
2019-03-02T03:48:19.651Z,5.30
2019-03-02T03:51:00.617Z,5.30
2019-03-02T03:53:41.441Z,5.30
2019-03-02T03:56:22.039Z,5.20
2019-03-02T03:59:03.004Z,5.20
2019-03-02T04:01:43.942Z,5.20
2019-03-02T04:04:28.754Z,5.10
2019-03-02T04:07:08.175Z,5.10
2019-03-02T04:09:49.591Z,5.20
2019-03-02T04:12:30.264Z,5.20
2019-03-02T04:15:11.361Z,5.20
2019-03-02T04:17:52.256Z,5.20
2019-03-02T04:20:33.064Z,5.20
2019-03-02T04:23:18.005Z,5.10
2019-03-02T04:25:58.247Z,5.10
2019-03-02T04:28:39.641Z,5.10
2019-03-02T04:31:20.366Z,5.00
2019-03-02T04:34:01.466Z,5.00
2019-03-02T04:36:43.121Z,5.00
2019-03-02T04:39:24.983Z,5.00
2019-03-02T04:42:05.944Z,5.10
2019-03-02T04:44:46.764Z,5.10
2019-03-02T04:47:27.667Z,5.10
2019-03-02T04:55:27.881Z,5.40
2019-03-02T04:58:11.985Z,5.30
2019-03-02T05:00:51.725Z,5.20
2019-03-02T05:03:32.487Z,5.20
2019-03-02T05:06:15.693Z,5.10
2019-03-02T05:08:56.184Z,5.10
2019-03-02T05:11:39.284Z,5.10
2019-03-02T05:14:19.901Z,5.20
2019-03-02T05:17:03.498Z,5.10
2019-03-02T05:19:43.313Z,5.10
2019-03-02T05:22:24.220Z,5.10
2019-03-02T05:25:04.920Z,5.10
2019-03-02T05:27:45.926Z,5.10
2019-03-02T05:30:30.229Z,5.10
2019-03-02T05:33:09.687Z,5.10
2019-03-02T05:35:50.860Z,5.10
2019-03-02T05:38:32.354Z,5.10
2019-03-02T05:41:12.968Z,5.00
2019-03-02T05:43:53.512Z,5.00
2019-03-02T05:46:34.435Z,5.00
2019-03-02T05:49:15.728Z,5.00
2019-03-02T05:51:58.211Z,5.10
2019-03-02T05:54:41.545Z,5.10
2019-03-02T05:57:21.039Z,5.10
2019-03-02T06:00:03.057Z,5.10
2019-03-02T06:02:43.608Z,5.10
2019-03-02T06:05:25.644Z,5.00
2019-03-02T06:08:06.709Z,5.00
2019-03-02T06:10:47.441Z,5.00
2019-03-02T06:13:29.758Z,5.10
2019-03-02T06:16:11.100Z,5.10
2019-03-02T06:18:51.708Z,5.00
2019-03-02T06:21:32.169Z,5.00
2019-03-02T06:24:13.015Z,5.00
2019-03-02T06:26:54.312Z,5.00
2019-03-02T06:29:35.260Z,5.00
2019-03-02T06:32:15.862Z,5.00
2019-03-02T06:34:57.047Z,5.00
2019-03-02T06:37:37.638Z,5.00
2019-03-02T06:40:20.172Z,5.00
2019-03-02T06:43:01.230Z,5.00
2019-03-02T06:45:43.497Z,4.90
2019-03-02T06:48:24.717Z,4.90
2019-03-02T06:51:07.781Z,4.80
2019-03-02T06:53:48.300Z,4.80
2019-03-02T06:56:29.143Z,4.80
2019-03-02T06:59:10.029Z,4.70
2019-03-02T07:01:50.849Z,4.70
2019-03-02T07:04:31.588Z,4.70
2019-03-02T07:07:12.797Z,4.70
2019-03-02T07:12:41.735Z,4.70
2019-03-02T07:15:22.735Z,4.60
2019-03-02T07:21:10.793Z,4.60
2019-03-02T07:23:51.298Z,4.60
2019-03-02T07:26:31.860Z,4.60
2019-03-02T07:29:13.888Z,4.60
2019-03-02T07:31:55.644Z,4.60
2019-03-02T07:34:36.393Z,4.60
2019-03-02T07:37:17.567Z,4.70
2019-03-02T07:39:58.285Z,4.80
2019-03-02T07:42:38.999Z,4.80
2019-03-02T07:45:19.669Z,4.90
2019-03-02T07:48:01.549Z,5.00
2019-03-02T07:50:42.534Z,5.20
2019-03-02T07:53:11.408Z,5.50
2019-03-02T07:55:59.584Z,5.80
2019-03-02T07:58:47.796Z,6.00
2019-03-02T08:01:28.308Z,6.30
2019-03-02T08:04:09.023Z,6.40
2019-03-02T08:06:49.722Z,6.60
2019-03-02T08:09:30.363Z,6.80
2019-03-02T08:12:13.366Z,6.90
2019-03-02T08:14:54.631Z,7.00
2019-03-02T08:17:35.748Z,7.20
2019-03-02T08:20:16.677Z,7.30
2019-03-02T08:22:57.513Z,7.30
2019-03-02T08:25:38.208Z,7.30
2019-03-02T08:28:18.873Z,7.30
2019-03-02T08:30:59.723Z,7.40
2019-03-02T08:33:45.786Z,7.30
2019-03-02T08:36:23.397Z,7.40
2019-03-02T08:39:06.836Z,7.40
2019-03-02T08:41:48.296Z,7.30
2019-03-02T08:44:29.128Z,7.30
2019-03-02T08:47:09.896Z,7.30
2019-03-02T08:49:50.494Z,7.30
2019-03-02T08:52:31.564Z,7.30
2019-03-02T08:55:12.209Z,7.20
2019-03-02T08:57:56.148Z,7.30
2019-03-02T09:00:38.821Z,7.30
2019-03-02T09:03:18.275Z,7.20
2019-03-02T09:05:59.251Z,7.30
2019-03-02T09:08:40.136Z,7.40
2019-03-02T09:11:20.886Z,7.50
2019-03-02T09:14:01.872Z,7.60
2019-03-02T09:16:30.912Z,7.70
2019-03-02T09:19:00.018Z,7.70
2019-03-02T09:21:49.050Z,7.80
2019-03-02T09:24:19.638Z,7.90
2019-03-02T09:27:07.959Z,8.00
2019-03-02T09:29:37.020Z,8.10
2019-03-02T09:32:06.064Z,8.10
2019-03-02T09:34:37.082Z,8.20
2019-03-02T09:37:06.998Z,8.20
2019-03-02T09:39:37.509Z,8.30
2019-03-02T09:42:07.425Z,8.40
2019-03-02T09:44:37.017Z,8.40
2019-03-02T09:47:08.989Z,8.50
2019-03-02T09:49:37.437Z,8.60
2019-03-02T09:52:07.337Z,8.60
2019-03-02T09:54:36.348Z,8.70
2019-03-02T09:57:05.946Z,8.80
2019-03-02T09:59:34.931Z,9.00
2019-03-02T10:02:03.962Z,9.10
2019-03-02T10:04:35.913Z,9.20
2019-03-02T10:07:03.677Z,9.40
2019-03-02T10:09:32.687Z,9.40
2019-03-02T10:12:01.646Z,9.30
2019-03-02T10:14:30.689Z,9.40
2019-03-02T10:16:59.628Z,9.50
2019-03-02T10:19:47.873Z,9.50
2019-03-02T10:22:36.048Z,9.70
2019-03-02T10:25:16.967Z,9.90
2019-03-02T10:27:58.795Z,10.20
2019-03-02T10:30:39.680Z,10.30
2019-03-02T10:33:20.441Z,10.40
2019-03-02T10:36:01.138Z,10.40
2019-03-02T10:38:42.145Z,10.50
2019-03-02T10:41:22.880Z,10.50
2019-03-02T10:44:03.963Z,10.40
2019-03-02T10:46:44.818Z,10.50
2019-03-02T10:49:25.876Z,10.60
2019-03-02T10:52:09.741Z,10.60
2019-03-02T10:54:49.714Z,10.60
2019-03-02T10:57:30.218Z,10.60
2019-03-02T10:59:59.212Z,10.70
2019-03-02T11:02:47.348Z,10.50
2019-03-02T11:05:56.922Z,10.40
2019-03-02T11:08:58.026Z,10.50
2019-03-02T11:12:06.805Z,10.50
2019-03-02T11:15:11.636Z,10.50
2019-03-02T11:18:11.478Z,10.50
2019-03-02T11:20:58.947Z,10.40
2019-03-02T11:24:00.627Z,10.30
2019-03-02T11:26:51.403Z,10.10
2019-03-02T11:29:51.506Z,10.10
2019-03-02T11:32:57.744Z,10.20
2019-03-02T11:35:47.089Z,10.50
2019-03-02T11:38:46.671Z,10.60
2019-03-02T11:41:46.185Z,10.60
2019-03-02T11:44:46.376Z,10.90
2019-03-02T11:47:38.857Z,11.00
2019-03-02T11:50:38.454Z,11.10
2019-03-02T11:53:24.586Z,11.10
2019-03-02T11:56:30.569Z,11.20
2019-03-02T11:59:30.666Z,11.20
2019-03-02T12:02:33.859Z,11.10
2019-03-02T12:05:36.605Z,11.10
2019-03-02T12:08:23.851Z,11.10
2019-03-02T12:11:31.395Z,11.00
2019-03-02T12:14:18.091Z,11.10
2019-03-02T12:17:06.228Z,11.10
2019-03-02T12:19:54.319Z,11.00
2019-03-02T12:22:42.406Z,11.00
2019-03-02T12:25:31.115Z,11.00
2019-03-02T12:28:28.596Z,11.10
2019-03-02T12:31:18.128Z,11.10
2019-03-02T12:37:02.127Z,11.30
2019-03-02T12:39:51.406Z,11.50
2019-03-02T12:42:39.442Z,11.50
2019-03-02T12:45:30.130Z,11.60
2019-03-02T12:51:23.176Z,11.60
2019-03-02T12:54:14.064Z,11.70
2019-03-02T12:57:04.910Z,11.80
2019-03-02T12:59:54.668Z,12.10
2019-03-02T13:02:44.185Z,12.40
2019-03-02T13:05:22.835Z,12.60
2019-03-02T13:08:03.055Z,12.60
2019-03-02T13:11:10.167Z,12.70
2019-03-02T13:14:07.149Z,12.70
2019-03-02T13:16:55.875Z,12.70
2019-03-02T13:19:32.804Z,13.00
2019-03-02T13:22:07.672Z,12.80
2019-03-02T13:25:20.346Z,12.70
2019-03-02T13:28:20.128Z,12.70
2019-03-02T13:31:19.973Z,12.80
2019-03-02T13:34:20.547Z,12.90
2019-03-02T13:37:21.307Z,13.00
2019-03-02T13:40:26.374Z,13.20
2019-03-02T13:43:24.710Z,13.20
2019-03-02T13:46:12.345Z,13.10
2019-03-02T13:49:12.262Z,13.30
2019-03-02T13:52:11.903Z,13.60
2019-03-02T13:55:17.441Z,13.60
2019-03-02T13:58:18.022Z,13.80
2019-03-02T14:01:07.572Z,13.90
2019-03-02T14:04:07.649Z,13.80
2019-03-02T14:07:07.726Z,13.90
2019-03-02T14:10:07.989Z,13.80
2019-03-02T14:13:13.476Z,14.00
2019-03-02T14:16:19.417Z,13.80
2019-03-02T14:19:10.324Z,13.70
2019-03-02T14:21:58.065Z,13.80
2019-03-02T14:24:58.010Z,13.90
2019-03-02T14:27:58.613Z,14.00
2019-03-02T14:30:47.332Z,14.20
2019-03-02T14:33:36.912Z,14.20
2019-03-02T14:36:34.867Z,14.30
2019-03-02T14:39:38.069Z,14.40
2019-03-02T14:42:39.851Z,14.20
2019-03-02T14:45:39.334Z,14.20
2019-03-02T14:48:29.671Z,14.30
2019-03-02T14:51:29.737Z,14.40
2019-03-02T14:54:20.707Z,14.50
2019-03-02T14:57:20.987Z,14.40
2019-03-02T15:00:23.051Z,14.20
2019-03-02T15:03:29.235Z,14.20
2019-03-02T15:09:31.403Z,14.50
2019-03-02T15:12:27.205Z,14.40
2019-03-02T15:15:26.721Z,14.40
2019-03-02T15:18:29.090Z,14.20
2019-03-02T15:21:27.627Z,13.80
2019-03-02T15:24:27.200Z,13.40
2019-03-02T15:27:27.556Z,13.10
2019-03-02T15:30:27.804Z,12.80
2019-03-02T15:33:33.902Z,12.40
2019-03-02T15:36:26.404Z,12.20
2019-03-02T15:39:26.875Z,12.00
2019-03-02T15:42:24.295Z,11.80
2019-03-02T15:45:24.566Z,11.60
2019-03-02T15:51:30.950Z,11.20
2019-03-02T16:00:13.297Z,10.80
2019-03-02T16:02:59.469Z,10.80
2019-03-02T16:05:59.509Z,10.70
2019-03-02T16:09:02.694Z,10.60
2019-03-02T16:11:55.473Z,10.60
2019-03-02T16:14:50.885Z,10.60
2019-03-02T16:20:53.912Z,10.50
2019-03-02T16:23:47.140Z,10.40
2019-03-02T16:26:53.037Z,10.40
2019-03-02T16:29:52.709Z,10.40
2019-03-02T16:32:42.680Z,10.30
2019-03-02T16:35:48.183Z,10.20
2019-03-02T16:38:38.900Z,10.10
2019-03-02T16:41:38.851Z,10.00
2019-03-02T16:44:41.332Z,9.90
2019-03-02T16:47:33.364Z,9.80
2019-03-02T16:50:33.735Z,9.70
2019-03-02T16:53:22.723Z,9.60
2019-03-02T16:56:22.796Z,9.60
2019-03-02T16:59:28.175Z,9.50
2019-03-02T17:02:19.548Z,9.40
2019-03-02T17:05:12.482Z,9.30
2019-03-02T17:08:12.765Z,9.30
2019-03-02T17:11:02.456Z,9.20
2019-03-02T17:14:09.120Z,9.10
2019-03-02T17:17:12.011Z,9.00
2019-03-02T17:20:11.438Z,9.00
2019-03-02T17:23:01.566Z,8.90
2019-03-02T17:26:04.999Z,8.80
2019-03-02T17:28:56.140Z,8.70
2019-03-02T17:31:55.890Z,8.60
2019-03-02T17:34:55.950Z,8.60
2019-03-02T17:37:56.421Z,8.60
2019-03-02T17:40:56.715Z,8.60
2019-03-02T17:43:56.620Z,8.60
2019-03-02T17:46:56.955Z,8.50
2019-03-02T17:50:02.633Z,8.50
2019-03-02T17:52:54.384Z,8.40
2019-03-02T17:55:44.787Z,8.40
2019-03-02T17:58:45.037Z,8.40
2019-03-02T18:01:40.716Z,8.40
2019-03-02T18:04:14.889Z,8.30
2019-03-02T18:07:18.051Z,8.30
2019-03-02T18:10:25.336Z,8.30
2019-03-02T18:13:35.281Z,8.30
2019-03-02T18:16:29.521Z,8.20
2019-03-02T18:19:10.728Z,8.20
2019-03-02T18:21:51.434Z,8.20
2019-03-02T18:24:35.414Z,8.20
2019-03-02T18:27:15.133Z,8.10
2019-03-02T18:29:55.858Z,8.10
2019-03-02T18:32:37.084Z,8.10
2019-03-02T18:35:17.981Z,8.00
2019-03-02T18:37:58.769Z,7.90
2019-03-02T18:40:40.516Z,7.90
2019-03-02T18:43:21.662Z,7.90
2019-03-02T18:46:03.012Z,7.80
2019-03-02T18:52:01.612Z,7.80
2019-03-02T18:54:45.048Z,7.70
2019-03-02T18:57:24.643Z,7.70
2019-03-02T19:00:05.490Z,7.70
2019-03-02T19:02:48.131Z,7.60
2019-03-02T19:05:31.927Z,7.50
2019-03-02T19:08:02.178Z,7.50
2019-03-02T19:10:50.345Z,7.40
2019-03-02T19:13:40.675Z,7.30
2019-03-02T19:16:20.960Z,7.30
2019-03-02T19:19:01.713Z,7.30
2019-03-02T19:21:42.850Z,7.20
2019-03-02T19:24:23.263Z,7.20
2019-03-02T19:27:03.770Z,7.10
2019-03-02T19:29:44.345Z,7.20
2019-03-02T19:32:25.075Z,7.20
2019-03-02T19:35:05.809Z,7.20
2019-03-02T19:37:47.152Z,7.20
2019-03-02T19:40:27.668Z,7.20
2019-03-02T19:43:08.535Z,7.20
2019-03-02T19:45:49.049Z,7.20
2019-03-02T19:48:30.021Z,7.20
2019-03-02T19:51:10.490Z,7.10
2019-03-02T19:53:51.156Z,7.10
2019-03-02T19:56:31.693Z,7.00
2019-03-02T19:59:12.339Z,7.00
2019-03-02T20:01:53.105Z,7.00
2019-03-02T20:04:34.225Z,7.00
2019-03-02T20:07:03.289Z,7.00
2019-03-02T20:12:53.748Z,7.00
2019-03-02T20:15:34.656Z,7.10
2019-03-02T20:18:15.557Z,7.10
2019-03-02T20:20:56.521Z,7.10
2019-03-02T20:23:37.590Z,7.20
2019-03-02T20:26:18.428Z,7.20
2019-03-02T20:28:59.177Z,7.30
2019-03-02T20:31:40.040Z,7.30
2019-03-02T20:34:20.830Z,7.30
2019-03-02T20:37:01.769Z,7.30
2019-03-02T20:39:43.037Z,7.30
2019-03-02T20:42:23.581Z,7.30
2019-03-02T20:45:04.337Z,7.30
2019-03-02T20:47:44.875Z,7.30
2019-03-02T20:50:25.797Z,7.30
2019-03-02T20:53:06.713Z,7.30
2019-03-02T20:55:47.425Z,7.20
2019-03-02T20:58:28.312Z,7.30
2019-03-02T21:01:09.463Z,7.30
2019-03-02T21:03:49.950Z,7.30
2019-03-02T21:06:30.445Z,7.30
2019-03-02T21:09:11.044Z,7.30
2019-03-02T21:11:51.530Z,7.30
2019-03-02T21:14:32.197Z,7.30
2019-03-02T21:17:12.761Z,7.20
2019-03-02T21:19:53.244Z,7.20
2019-03-02T21:22:34.073Z,7.10
2019-03-02T21:25:15.303Z,7.10
2019-03-02T21:27:56.087Z,7.00
2019-03-02T21:30:36.682Z,7.00
2019-03-02T21:33:17.348Z,7.00
2019-03-02T21:35:58.071Z,7.00
2019-03-02T21:38:39.085Z,7.00
2019-03-02T21:41:20.202Z,7.00
2019-03-02T21:44:01.100Z,6.90
2019-03-02T21:46:42.022Z,6.90
2019-03-02T21:49:23.069Z,6.80
2019-03-02T21:52:03.832Z,6.70
2019-03-02T21:54:46.300Z,6.70
2019-03-02T21:57:27.603Z,6.70
2019-03-02T22:00:08.437Z,6.70
2019-03-02T22:02:49.531Z,6.80
2019-03-02T22:05:30.170Z,6.80
2019-03-02T22:08:11.057Z,6.80
2019-03-02T22:10:52.324Z,6.80
2019-03-02T22:13:33.695Z,6.90
2019-03-02T22:16:14.200Z,6.80
2019-03-02T22:18:55.200Z,6.90
2019-03-02T22:21:36.138Z,6.90
2019-03-02T22:24:16.576Z,6.90
2019-03-02T22:26:57.453Z,6.90
2019-03-02T22:29:37.911Z,6.90
2019-03-02T22:32:18.858Z,6.90
2019-03-02T22:34:59.701Z,6.90
2019-03-02T22:37:40.603Z,6.80
2019-03-02T22:40:21.328Z,6.80
2019-03-02T22:43:02.260Z,6.70
2019-03-02T22:45:42.971Z,6.70
2019-03-02T22:48:23.667Z,6.70
2019-03-02T22:51:04.084Z,6.80
2019-03-02T22:53:44.799Z,6.80
2019-03-02T22:56:25.420Z,6.80
2019-03-02T22:59:05.282Z,6.70
2019-03-02T23:01:46.473Z,6.80
2019-03-02T23:04:26.972Z,6.70
2019-03-02T23:07:08.067Z,6.70
2019-03-02T23:09:48.864Z,6.70
2019-03-02T23:12:29.738Z,6.60
2019-03-02T23:15:10.748Z,6.60
2019-03-02T23:17:51.402Z,6.60
2019-03-02T23:20:32.296Z,6.50
2019-03-02T23:23:01.256Z,6.50
2019-03-02T23:25:49.401Z,6.50
2019-03-02T23:28:37.563Z,6.60
2019-03-02T23:31:25.705Z,6.60
2019-03-02T23:34:06.224Z,6.60
2019-03-02T23:36:46.840Z,6.60
2019-03-02T23:39:27.661Z,6.60
2019-03-02T23:42:08.533Z,6.60
2019-03-02T23:44:49.167Z,6.60
2019-03-02T23:47:29.760Z,6.60
2019-03-02T23:50:10.665Z,6.60
2019-03-02T23:52:51.533Z,6.60
2019-03-02T23:55:32.609Z,6.60
2019-03-02T23:58:13.802Z,6.50
